Conway Springs, KS

11:23 PM CDT on May 25, 2015 (GMT -0500)
WSU Field Station | | Change Station
CLOSE
Current Station
Personal Weather Station
Location: Viola, KS
Elevation: 1332 ft
Nearby Weather Stations

Elev 1332 ft 37.53 °N, 97.67 °W | Updated 4 minutes ago

Rain
Rain
60.5 °F
Feels Like 60.5 °F
N
2.0
Wind Variable Wind from NNE
Gusts 2.0 mph

Today
High -- | Low -- °F
--% Chance of Precip.
Yesterday
High -- | Low -- °F
Precip. -- in
6:14 AM 8:40 PM
First Quarter, 54% visible
Pressure 29.81 in
Visibility 10.0 miles
Clouds Few 8000 ft
Mostly Cloudy 9500 ft
Overcast 13000 ft
Dew Point 58 °F
Humidity 93%
Rainfall 0.70 in
Snow Depth Not available.
UV 0.0 out of 12
Pollen 9.50 out of 12
Air Quality Not available.
Flu Activity No Activity
METAR KICT 260353Z 23006KT 10SM -RA FEW080 BKN095 OVC130 16/14 A2984 RMK AO2 RAE05B35 SLP094 P0000 T01560139 $

More Conditions Fewer Conditions

Pressure 29.81 in
Visibility 10.0 miles
Clouds Few 8000 ft
Mostly Cloudy 9500 ft
Overcast 13000 ft
Dew Point 58 °F
Humidity 93%
Rainfall 0.70 in
Snow Depth Not available.
UV 0.0 out of 12
Pollen 9.50 out of 12
Air Quality Not available.
Flu Activity No Activity
METAR KICT 260353Z 23006KT 10SM -RA FEW080 BKN095 OVC130 16/14 A2984 RMK AO2 RAE05B35 SLP094 P0000 T01560139 $

More Conditions Fewer Conditions

10-Day Weather Forecast

Almanac

Astronomy

May. 25, 2015 Rise Set
Actual Time
Civil Twilight
Nautical Twilight
Astronomical Twilight
Moon
Length of Visible Light
Length of Day
Tomorrow will be .
, % of the Moon is Illuminated

Today's Extremes

State Highs State Lows

Community

WunderPhotos

Upload Photos

1,824,277 photos uploaded!

WunderBlogs® & News

Nearby

Air Quality

  Air Quality AQ Index Pollutant
Not available.

Snow Depth

Station Depth Elevation

Earthquake Activity

City Distance Mag. Time & Date
Minimum magnitude displayed is 2.5.

Coastal Water Temperatures

Place Temperature

Stations

Nearby Weather Stations

Station Location Temp. Windchill Dew Point Humidity Wind Precip. Elev Updated Type